KSHR/SHR METAR and TAF weather

Enter ICAO airport designator
Station Type Date Time Source
KSHR METAR 2022/05/26 02:53 UTC NOAA

KSHR 260253Z AUTO 19003KT 10SM CLR 15/06 A2993 RMK AO2 SLP116 T01500061 53003


Station Type Date Time Source
KSHR Decoded METAR 2022/05/26 02:53 UTC NOAA

SHERIDAN COUNTY AIRPORT, WY, United States (KSHR) 44-46N 106-58W 1202M
May 25, 2022 - 10:53 PM EDT / 2022.05.26 0253 UTC
Wind: from the S (190 degrees) at 3 MPH (3 KT):0
Visibility: 10 mile(s):0
Sky conditions: clear
Temperature: 59.0 F (15.0 C)
Dew Point: 43.0 F (6.1 C)
Relative Humidity: 55%
Pressure (altimeter): 29.93 in. Hg (1013 hPa)
Pressure tendency: 0.01 inches (0.3 hPa) higher than three hours ago
ob: KSHR 260253Z AUTO 19003KT 10SM CLR 15/06 A2993 RMK AO2 SLP116 T01500061 53003
cycle: 3

Station Type Date Time Source
KSHR TAF 2022/05/25 18:24 UTC NOAA

TAF KSHR 251721Z 2518/2618 VRB04KT P6SM SCT100 BKN200
FM251900 32008KT P6SM BKN100
FM260100 VRB05KT P6SM SCT100

Example: see airport list